sensor_id;sensor_type;location;lat;lon;timestamp;P1;durP1;ratioP1;P2;durP2;ratioP2
19617;SDS011;9956;51.006;13.670;2023-05-07T00:02:41;21.15;;;18.88;;
19617;SDS011;9956;51.006;13.670;2023-05-07T00:07:41;24.70;;;21.70;;
19617;SDS011;9956;51.006;13.670;2023-05-07T00:12:42;25.60;;;21.17;;
19617;SDS011;9956;51.006;13.670;2023-05-07T00:17:42;27.80;;;22.75;;
19617;SDS011;9956;51.006;13.670;2023-05-07T00:22:43;27.70;;;23.10;;
19617;SDS011;9956;51.006;13.670;2023-05-07T00:27:43;28.63;;;22.77;;
19617;SDS011;9956;51.006;13.670;2023-05-07T00:32:44;28.15;;;23.48;;
19617;SDS011;9956;51.006;13.670;2023-05-07T00:37:45;25.38;;;21.60;;
19617;SDS011;9956;51.006;13.670;2023-05-07T00:42:46;24.33;;;20.08;;
19617;SDS011;9956;51.006;13.670;2023-05-07T00:47:48;21.98;;;18.40;;
19617;SDS011;9956;51.006;13.670;2023-05-07T00:52:48;23.45;;;19.65;;
19617;SDS011;9956;51.006;13.670;2023-05-07T00:57:49;26.23;;;20.55;;
19617;SDS011;9956;51.006;13.670;2023-05-07T01:02:50;29.45;;;22.52;;
19617;SDS011;9956;51.006;13.670;2023-05-07T01:07:50;28.10;;;22.92;;
19617;SDS011;9956;51.006;13.670;2023-05-07T01:12:52;28.23;;;24.02;;
19617;SDS011;9956;51.006;13.670;2023-05-07T01:17:53;26.30;;;23.48;;
19617;SDS011;9956;51.006;13.670;2023-05-07T01:23:02;29.15;;;24.35;;
19617;SDS011;9956;51.006;13.670;2023-05-07T01:28:03;30.63;;;24.58;;
19617;SDS011;9956;51.006;13.670;2023-05-07T01:33:09;29.73;;;24.88;;
19617;SDS011;9956;51.006;13.670;2023-05-07T01:38:11;28.92;;;25.80;;
19617;SDS011;9956;51.006;13.670;2023-05-07T01:43:12;30.77;;;25.95;;
19617;SDS011;9956;51.006;13.670;2023-05-07T01:48:18;30.73;;;25.27;;
19617;SDS011;9956;51.006;13.670;2023-05-07T01:53:19;32.13;;;23.17;;
19617;SDS011;9956;51.006;13.670;2023-05-07T01:58:19;27.40;;;23.30;;
19617;SDS011;9956;51.006;13.670;2023-05-07T02:03:20;24.90;;;20.92;;
19617;SDS011;9956;51.006;13.670;2023-05-07T02:08:30;24.83;;;22.15;;
19617;SDS011;9956;51.006;13.670;2023-05-07T02:13:31;24.70;;;21.65;;
19617;SDS011;9956;51.006;13.670;2023-05-07T02:18:33;25.65;;;21.20;;
19617;SDS011;9956;51.006;13.670;2023-05-07T02:23:34;24.35;;;21.10;;
19617;SDS011;9956;51.006;13.670;2023-05-07T02:28:35;25.98;;;20.95;;
19617;SDS011;9956;51.006;13.670;2023-05-07T02:33:38;26.10;;;21.88;;
19617;SDS011;9956;51.006;13.670;2023-05-07T02:38:41;24.92;;;21.40;;
19617;SDS011;9956;51.006;13.670;2023-05-07T02:43:42;24.35;;;20.08;;
19617;SDS011;9956;51.006;13.670;2023-05-07T02:48:44;23.50;;;20.65;;
19617;SDS011;9956;51.006;13.670;2023-05-07T02:53:45;22.40;;;19.95;;
19617;SDS011;9956;51.006;13.670;2023-05-07T02:58:46;24.35;;;20.70;;
19617;SDS011;9956;51.006;13.670;2023-05-07T03:03:48;22.48;;;19.63;;
19617;SDS011;9956;51.006;13.670;2023-05-07T03:08:49;23.98;;;19.55;;
19617;SDS011;9956;51.006;13.670;2023-05-07T03:13:49;21.67;;;19.40;;
19617;SDS011;9956;51.006;13.670;2023-05-07T03:18:51;21.13;;;17.90;;
19617;SDS011;9956;51.006;13.670;2023-05-07T03:23:52;21.17;;;18.15;;
19617;SDS011;9956;51.006;13.670;2023-05-07T03:28:53;19.73;;;16.88;;
19617;SDS011;9956;51.006;13.670;2023-05-07T03:33:56;19.95;;;15.68;;
19617;SDS011;9956;51.006;13.670;2023-05-07T03:38:58;16.52;;;13.57;;
19617;SDS011;9956;51.006;13.670;2023-05-07T03:44:08;15.20;;;13.70;;
19617;SDS011;9956;51.006;13.670;2023-05-07T03:49:08;14.57;;;13.05;;
19617;SDS011;9956;51.006;13.670;2023-05-07T03:54:09;14.88;;;12.50;;
19617;SDS011;9956;51.006;13.670;2023-05-07T03:59:12;13.18;;;11.18;;
19617;SDS011;9956;51.006;13.670;2023-05-07T04:04:14;12.48;;;11.18;;
19617;SDS011;9956;51.006;13.670;2023-05-07T04:09:15;12.45;;;11.15;;
19617;SDS011;9956;51.006;13.670;2023-05-07T04:14:16;13.60;;;11.65;;
19617;SDS011;9956;51.006;13.670;2023-05-07T04:19:17;13.90;;;12.00;;
19617;SDS011;9956;51.006;13.670;2023-05-07T04:24:19;13.65;;;12.32;;
19617;SDS011;9956;51.006;13.670;2023-05-07T04:29:20;13.98;;;11.38;;
19617;SDS011;9956;51.006;13.670;2023-05-07T04:34:21;14.90;;;12.45;;
19617;SDS011;9956;51.006;13.670;2023-05-07T04:39:21;14.77;;;12.90;;
19617;SDS011;9956;51.006;13.670;2023-05-07T04:44:23;16.83;;;13.15;;
19617;SDS011;9956;51.006;13.670;2023-05-07T04:49:23;17.55;;;14.45;;
19617;SDS011;9956;51.006;13.670;2023-05-07T04:54:26;19.67;;;14.93;;
19617;SDS011;9956;51.006;13.670;2023-05-07T04:59:27;18.67;;;15.32;;
19617;SDS011;9956;51.006;13.670;2023-05-07T05:04:28;21.02;;;15.38;;
19617;SDS011;9956;51.006;13.670;2023-05-07T05:09:29;18.38;;;14.98;;
19617;SDS011;9956;51.006;13.670;2023-05-07T05:14:30;19.42;;;15.93;;
19617;SDS011;9956;51.006;13.670;2023-05-07T05:19:31;19.33;;;14.82;;
19617;SDS011;9956;51.006;13.670;2023-05-07T05:24:32;20.17;;;15.15;;
19617;SDS011;9956;51.006;13.670;2023-05-07T05:29:33;17.88;;;14.88;;
19617;SDS011;9956;51.006;13.670;2023-05-07T05:34:33;16.98;;;14.52;;
19617;SDS011;9956;51.006;13.670;2023-05-07T05:39:34;14.93;;;12.57;;
19617;SDS011;9956;51.006;13.670;2023-05-07T05:44:37;15.15;;;13.55;;
19617;SDS011;9956;51.006;13.670;2023-05-07T05:49:37;18.13;;;14.38;;
19617;SDS011;9956;51.006;13.670;2023-05-07T05:54:40;18.73;;;15.35;;
19617;SDS011;9956;51.006;13.670;2023-05-07T05:59:40;15.18;;;13.07;;
19617;SDS011;9956;51.006;13.670;2023-05-07T06:04:41;16.73;;;14.30;;
19617;SDS011;9956;51.006;13.670;2023-05-07T06:09:43;15.00;;;12.85;;
19617;SDS011;9956;51.006;13.670;2023-05-07T06:14:45;16.92;;;13.45;;
19617;SDS011;9956;51.006;13.670;2023-05-07T06:19:46;14.95;;;13.18;;
19617;SDS011;9956;51.006;13.670;2023-05-07T06:24:47;14.40;;;12.43;;
19617;SDS011;9956;51.006;13.670;2023-05-07T06:29:48;13.00;;;10.73;;
19617;SDS011;9956;51.006;13.670;2023-05-07T06:34:51;13.77;;;11.50;;
19617;SDS011;9956;51.006;13.670;2023-05-07T06:39:51;10.13;;;8.93;;
19617;SDS011;9956;51.006;13.670;2023-05-07T06:44:52;11.60;;;9.90;;
19617;SDS011;9956;51.006;13.670;2023-05-07T06:49:52;10.15;;;9.15;;
19617;SDS011;9956;51.006;13.670;2023-05-07T06:54:56;10.90;;;8.52;;
19617;SDS011;9956;51.006;13.670;2023-05-07T06:59:59;8.82;;;7.47;;
19617;SDS011;9956;51.006;13.670;2023-05-07T07:05:00;8.45;;;7.65;;
19617;SDS011;9956;51.006;13.670;2023-05-07T07:10:01;7.93;;;7.07;;
19617;SDS011;9956;51.006;13.670;2023-05-07T07:15:04;8.80;;;7.28;;
19617;SDS011;9956;51.006;13.670;2023-05-07T07:20:06;7.50;;;6.80;;
19617;SDS011;9956;51.006;13.670;2023-05-07T07:25:07;8.25;;;7.47;;
19617;SDS011;9956;51.006;13.670;2023-05-07T07:30:09;9.38;;;7.63;;
19617;SDS011;9956;51.006;13.670;2023-05-07T07:35:11;10.60;;;7.78;;
19617;SDS011;9956;51.006;13.670;2023-05-07T07:40:13;8.73;;;7.88;;
19617;SDS011;9956;51.006;13.670;2023-05-07T07:45:19;10.13;;;8.43;;
19617;SDS011;9956;51.006;13.670;2023-05-07T07:50:24;9.57;;;8.32;;
19617;SDS011;9956;51.006;13.670;2023-05-07T07:55:25;8.40;;;7.50;;
19617;SDS011;9956;51.006;13.670;2023-05-07T08:00:28;8.10;;;7.30;;
19617;SDS011;9956;51.006;13.670;2023-05-07T08:05:30;7.45;;;6.70;;
19617;SDS011;9956;51.006;13.670;2023-05-07T08:10:32;6.55;;;5.95;;
19617;SDS011;9956;51.006;13.670;2023-05-07T08:15:42;6.50;;;5.90;;
19617;SDS011;9956;51.006;13.670;2023-05-07T08:20:44;5.35;;;4.85;;
19617;SDS011;9956;51.006;13.670;2023-05-07T08:25:50;5.38;;;4.97;;
19617;SDS011;9956;51.006;13.670;2023-05-07T08:30:57;6.50;;;5.90;;
19617;SDS011;9956;51.006;13.670;2023-05-07T08:36:00;5.38;;;4.88;;
19617;SDS011;9956;51.006;13.670;2023-05-07T08:41:19;5.15;;;4.65;;
19617;SDS011;9956;51.006;13.670;2023-05-07T08:46:22;5.22;;;4.72;;
19617;SDS011;9956;51.006;13.670;2023-05-07T08:51:33;5.60;;;5.10;;
19617;SDS011;9956;51.006;13.670;2023-05-07T08:56:33;4.75;;;4.25;;
19617;SDS011;9956;51.006;13.670;2023-05-07T09:01:34;4.60;;;4.20;;
19617;SDS011;9956;51.006;13.670;2023-05-07T09:06:44;4.63;;;4.22;;
19617;SDS011;9956;51.006;13.670;2023-05-07T09:11:51;3.88;;;3.47;;
19617;SDS011;9956;51.006;13.670;2023-05-07T09:17:01;4.50;;;4.20;;
19617;SDS011;9956;51.006;13.670;2023-05-07T09:22:06;5.10;;;4.60;;
19617;SDS011;9956;51.006;13.670;2023-05-07T09:27:25;6.50;;;5.75;;
19617;SDS011;9956;51.006;13.670;2023-05-07T09:32:32;7.28;;;6.60;;
19617;SDS011;9956;51.006;13.670;2023-05-07T09:37:36;6.38;;;5.78;;
19617;SDS011;9956;51.006;13.670;2023-05-07T09:42:49;6.60;;;5.95;;
19617;SDS011;9956;51.006;13.670;2023-05-07T09:48:09;7.43;;;6.38;;
19617;SDS011;9956;51.006;13.670;2023-05-07T09:53:11;7.97;;;7.18;;
19617;SDS011;9956;51.006;13.670;2023-05-07T09:58:43;7.60;;;6.93;;
19617;SDS011;9956;51.006;13.670;2023-05-07T10:03:49;8.18;;;7.32;;
19617;SDS011;9956;51.006;13.670;2023-05-07T10:08:54;6.80;;;6.13;;
19617;SDS011;9956;51.006;13.670;2023-05-07T10:14:13;5.78;;;5.28;;
19617;SDS011;9956;51.006;13.670;2023-05-07T10:19:18;5.65;;;5.15;;
19617;SDS011;9956;51.006;13.670;2023-05-07T10:24:29;6.20;;;5.70;;
19617;SDS011;9956;51.006;13.670;2023-05-07T10:29:57;7.63;;;6.07;;
19617;SDS011;9956;51.006;13.670;2023-05-07T10:35:22;6.80;;;6.10;;
19617;SDS011;9956;51.006;13.670;2023-05-07T10:40:36;6.25;;;5.65;;
19617;SDS011;9956;51.006;13.670;2023-05-07T10:45:45;6.78;;;6.15;;
19617;SDS011;9956;51.006;13.670;2023-05-07T10:51:23;7.72;;;7.03;;
19617;SDS011;9956;51.006;13.670;2023-05-07T10:56:35;7.50;;;6.65;;
19617;SDS011;9956;51.006;13.670;2023-05-07T11:01:54;7.43;;;6.68;;
19617;SDS011;9956;51.006;13.670;2023-05-07T11:07:24;6.75;;;6.15;;
19617;SDS011;9956;51.006;13.670;2023-05-07T11:12:53;7.00;;;6.40;;
19617;SDS011;9956;51.006;13.670;2023-05-07T11:18:17;6.90;;;6.20;;
19617;SDS011;9956;51.006;13.670;2023-05-07T11:29:19;7.43;;;6.82;;
19617;SDS011;9956;51.006;13.670;2023-05-07T11:34:28;7.28;;;6.57;;
19617;SDS011;9956;51.006;13.670;2023-05-07T11:39:41;6.82;;;6.22;;
19617;SDS011;9956;51.006;13.670;2023-05-07T11:44:43;6.40;;;5.90;;
19617;SDS011;9956;51.006;13.670;2023-05-07T11:49:47;5.95;;;5.45;;
19617;SDS011;9956;51.006;13.670;2023-05-07T11:55:01;6.85;;;6.25;;
19617;SDS011;9956;51.006;13.670;2023-05-07T12:00:23;5.72;;;5.28;;
19617;SDS011;9956;51.006;13.670;2023-05-07T12:11:24;9.40;;;7.93;;
19617;SDS011;9956;51.006;13.670;2023-05-07T12:16:38;7.45;;;6.75;;
19617;SDS011;9956;51.006;13.670;2023-05-07T12:21:40;6.50;;;5.90;;
19617;SDS011;9956;51.006;13.670;2023-05-07T12:26:52;7.07;;;6.47;;
19617;SDS011;9956;51.006;13.670;2023-05-07T12:32:06;6.78;;;6.18;;
19617;SDS011;9956;51.006;13.670;2023-05-07T12:37:23;6.07;;;5.57;;
19617;SDS011;9956;51.006;13.670;2023-05-07T12:42:33;7.70;;;7.00;;
19617;SDS011;9956;51.006;13.670;2023-05-07T12:48:12;8.05;;;7.25;;
19617;SDS011;9956;51.006;13.670;2023-05-07T12:53:16;9.25;;;6.93;;
19617;SDS011;9956;51.006;13.670;2023-05-07T12:58:38;7.28;;;6.68;;
19617;SDS011;9956;51.006;13.670;2023-05-07T13:03:38;6.05;;;5.55;;
19617;SDS011;9956;51.006;13.670;2023-05-07T13:08:47;5.70;;;5.20;;
19617;SDS011;9956;51.006;13.670;2023-05-07T13:13:48;6.05;;;5.55;;
19617;SDS011;9956;51.006;13.670;2023-05-07T13:19:28;5.60;;;5.10;;
19617;SDS011;9956;51.006;13.670;2023-05-07T13:24:58;6.43;;;5.88;;
19617;SDS011;9956;51.006;13.670;2023-05-07T13:30:05;5.63;;;5.22;;
19617;SDS011;9956;51.006;13.670;2023-05-07T13:35:12;5.82;;;5.43;;
19617;SDS011;9956;51.006;13.670;2023-05-07T13:40:26;9.05;;;5.80;;
19617;SDS011;9956;51.006;13.670;2023-05-07T13:45:41;6.53;;;5.68;;
19617;SDS011;9956;51.006;13.670;2023-05-07T13:51:03;6.25;;;5.75;;
19617;SDS011;9956;51.006;13.670;2023-05-07T13:56:23;5.50;;;5.10;;
19617;SDS011;9956;51.006;13.670;2023-05-07T14:01:34;5.10;;;4.68;;
19617;SDS011;9956;51.006;13.670;2023-05-07T14:06:46;5.43;;;4.93;;
19617;SDS011;9956;51.006;13.670;2023-05-07T14:17:15;5.72;;;5.15;;
19617;SDS011;9956;51.006;13.670;2023-05-07T14:22:32;5.28;;;4.85;;
19617;SDS011;9956;51.006;13.670;2023-05-07T14:28:00;6.07;;;4.97;;
19617;SDS011;9956;51.006;13.670;2023-05-07T14:39:06;4.68;;;3.67;;
19617;SDS011;9956;51.006;13.670;2023-05-07T14:44:20;4.28;;;3.97;;
19617;SDS011;9956;51.006;13.670;2023-05-07T14:49:36;4.28;;;3.72;;
19617;SDS011;9956;51.006;13.670;2023-05-07T14:54:49;4.07;;;3.75;;
19617;SDS011;9956;51.006;13.670;2023-05-07T15:00:03;4.05;;;3.53;;
19617;SDS011;9956;51.006;13.670;2023-05-07T15:05:10;3.60;;;3.17;;
19617;SDS011;9956;51.006;13.670;2023-05-07T15:10:28;3.97;;;3.58;;
19617;SDS011;9956;51.006;13.670;2023-05-07T15:15:48;4.10;;;3.80;;
19617;SDS011;9956;51.006;13.670;2023-05-07T15:20:49;4.88;;;3.90;;
19617;SDS011;9956;51.006;13.670;2023-05-07T15:25:58;5.53;;;5.13;;
19617;SDS011;9956;51.006;13.670;2023-05-07T15:31:29;5.55;;;5.05;;
19617;SDS011;9956;51.006;13.670;2023-05-07T15:36:33;6.10;;;5.10;;
19617;SDS011;9956;51.006;13.670;2023-05-07T15:42:23;6.18;;;5.63;;
19617;SDS011;9956;51.006;13.670;2023-05-07T15:47:42;9.90;;;6.05;;
19617;SDS011;9956;51.006;13.670;2023-05-07T15:53:10;6.05;;;5.55;;
19617;SDS011;9956;51.006;13.670;2023-05-07T15:58:41;6.30;;;5.70;;
19617;SDS011;9956;51.006;13.670;2023-05-07T16:04:39;6.35;;;5.75;;
19617;SDS011;9956;51.006;13.670;2023-05-07T16:10:05;6.07;;;5.57;;
19617;SDS011;9956;51.006;13.670;2023-05-07T16:15:08;6.72;;;6.13;;
19617;SDS011;9956;51.006;13.670;2023-05-07T16:26:33;6.25;;;5.65;;
19617;SDS011;9956;51.006;13.670;2023-05-07T16:32:14;5.65;;;5.15;;
19617;SDS011;9956;51.006;13.670;2023-05-07T16:38:23;5.47;;;5.07;;
19617;SDS011;9956;51.006;13.670;2023-05-07T16:49:39;8.27;;;6.18;;
19617;SDS011;9956;51.006;13.670;2023-05-07T16:55:19;6.72;;;6.07;;
19617;SDS011;9956;51.006;13.670;2023-05-07T17:00:57;5.90;;;5.38;;
19617;SDS011;9956;51.006;13.670;2023-05-07T17:12:11;6.40;;;5.90;;
19617;SDS011;9956;51.006;13.670;2023-05-07T17:17:31;6.07;;;5.47;;
19617;SDS011;9956;51.006;13.670;2023-05-07T17:35:04;7.22;;;6.55;;
19617;SDS011;9956;51.006;13.670;2023-05-07T17:40:27;7.18;;;6.57;;
19617;SDS011;9956;51.006;13.670;2023-05-07T17:51:55;7.43;;;6.50;;
19617;SDS011;9956;51.006;13.670;2023-05-07T18:03:54;7.30;;;6.63;;
19617;SDS011;9956;51.006;13.670;2023-05-07T18:15:33;7.88;;;7.18;;
19617;SDS011;9956;51.006;13.670;2023-05-07T18:21:01;7.75;;;7.05;;
19617;SDS011;9956;51.006;13.670;2023-05-07T18:26:02;7.75;;;6.97;;
19617;SDS011;9956;51.006;13.670;2023-05-07T18:31:03;8.18;;;6.53;;
19617;SDS011;9956;51.006;13.670;2023-05-07T18:36:04;7.43;;;6.80;;
19617;SDS011;9956;51.006;13.670;2023-05-07T18:41:05;9.07;;;8.27;;
19617;SDS011;9956;51.006;13.670;2023-05-07T18:46:05;9.13;;;8.32;;
19617;SDS011;9956;51.006;13.670;2023-05-07T18:51:06;8.40;;;7.68;;
19617;SDS011;9956;51.006;13.670;2023-05-07T18:56:11;9.02;;;8.13;;
19617;SDS011;9956;51.006;13.670;2023-05-07T19:01:11;8.95;;;8.15;;
19617;SDS011;9956;51.006;13.670;2023-05-07T19:06:12;9.63;;;8.73;;
19617;SDS011;9956;51.006;13.670;2023-05-07T19:11:13;9.50;;;8.60;;
19617;SDS011;9956;51.006;13.670;2023-05-07T19:16:14;8.40;;;7.65;;
19617;SDS011;9956;51.006;13.670;2023-05-07T19:21:15;9.00;;;8.20;;
19617;SDS011;9956;51.006;13.670;2023-05-07T19:26:15;9.75;;;8.90;;
19617;SDS011;9956;51.006;13.670;2023-05-07T19:31:19;9.38;;;8.38;;
19617;SDS011;9956;51.006;13.670;2023-05-07T19:36:20;9.73;;;8.82;;
19617;SDS011;9956;51.006;13.670;2023-05-07T19:41:20;12.40;;;9.90;;
19617;SDS011;9956;51.006;13.670;2023-05-07T19:46:21;10.88;;;9.85;;
19617;SDS011;9956;51.006;13.670;2023-05-07T19:51:21;11.20;;;10.10;;
19617;SDS011;9956;51.006;13.670;2023-05-07T19:56:22;11.43;;;10.30;;
19617;SDS011;9956;51.006;13.670;2023-05-07T20:01:22;12.20;;;11.05;;
19617;SDS011;9956;51.006;13.670;2023-05-07T20:06:23;11.52;;;10.45;;
19617;SDS011;9956;51.006;13.670;2023-05-07T20:11:23;11.73;;;10.45;;
19617;SDS011;9956;51.006;13.670;2023-05-07T20:16:24;12.65;;;11.43;;
19617;SDS011;9956;51.006;13.670;2023-05-07T20:21:24;11.55;;;10.45;;
19617;SDS011;9956;51.006;13.670;2023-05-07T20:26:25;11.02;;;9.95;;
19617;SDS011;9956;51.006;13.670;2023-05-07T20:31:26;10.82;;;9.85;;
19617;SDS011;9956;51.006;13.670;2023-05-07T20:36:26;10.45;;;9.43;;
19617;SDS011;9956;51.006;13.670;2023-05-07T20:41:27;10.40;;;9.50;;
19617;SDS011;9956;51.006;13.670;2023-05-07T20:46:27;10.70;;;9.70;;
19617;SDS011;9956;51.006;13.670;2023-05-07T20:51:29;10.23;;;9.35;;
19617;SDS011;9956;51.006;13.670;2023-05-07T20:56:30;10.32;;;9.43;;
19617;SDS011;9956;51.006;13.670;2023-05-07T21:01:31;10.98;;;9.95;;
19617;SDS011;9956;51.006;13.670;2023-05-07T21:06:31;10.85;;;9.95;;
19617;SDS011;9956;51.006;13.670;2023-05-07T21:11:31;10.00;;;9.10;;
19617;SDS011;9956;51.006;13.670;2023-05-07T21:16:32;10.38;;;9.27;;
19617;SDS011;9956;51.006;13.670;2023-05-07T21:21:32;10.35;;;9.13;;
19617;SDS011;9956;51.006;13.670;2023-05-07T21:26:33;10.15;;;9.25;;
19617;SDS011;9956;51.006;13.670;2023-05-07T21:31:34;9.23;;;8.43;;
19617;SDS011;9956;51.006;13.670;2023-05-07T21:36:34;9.48;;;8.57;;
19617;SDS011;9956;51.006;13.670;2023-05-07T21:41:35;9.82;;;8.93;;
19617;SDS011;9956;51.006;13.670;2023-05-07T21:46:35;9.73;;;8.75;;
19617;SDS011;9956;51.006;13.670;2023-05-07T21:51:36;9.80;;;9.00;;
19617;SDS011;9956;51.006;13.670;2023-05-07T21:56:36;10.15;;;8.32;;
19617;SDS011;9956;51.006;13.670;2023-05-07T22:01:37;9.90;;;7.95;;
19617;SDS011;9956;51.006;13.670;2023-05-07T22:06:37;7.78;;;7.07;;
19617;SDS011;9956;51.006;13.670;2023-05-07T22:11:38;8.40;;;7.60;;
19617;SDS011;9956;51.006;13.670;2023-05-07T22:16:38;8.32;;;7.53;;
19617;SDS011;9956;51.006;13.670;2023-05-07T22:21:52;8.15;;;6.97;;
19617;SDS011;9956;51.006;13.670;2023-05-07T22:26:52;8.00;;;7.30;;
19617;SDS011;9956;51.006;13.670;2023-05-07T22:31:53;7.85;;;7.05;;
19617;SDS011;9956;51.006;13.670;2023-05-07T22:36:53;8.50;;;7.03;;
19617;SDS011;9956;51.006;13.670;2023-05-07T22:41:54;6.85;;;6.15;;
19617;SDS011;9956;51.006;13.670;2023-05-07T22:46:55;7.57;;;6.88;;
19617;SDS011;9956;51.006;13.670;2023-05-07T22:51:55;8.35;;;7.32;;
19617;SDS011;9956;51.006;13.670;2023-05-07T22:56:55;7.50;;;6.80;;
19617;SDS011;9956;51.006;13.670;2023-05-07T23:01:58;7.80;;;7.10;;
19617;SDS011;9956;51.006;13.670;2023-05-07T23:06:58;8.40;;;7.55;;
19617;SDS011;9956;51.006;13.670;2023-05-07T23:11:59;8.32;;;7.53;;
19617;SDS011;9956;51.006;13.670;2023-05-07T23:16:59;7.78;;;7.07;;
19617;SDS011;9956;51.006;13.670;2023-05-07T23:22:00;8.63;;;6.82;;
19617;SDS011;9956;51.006;13.670;2023-05-07T23:27:04;9.57;;;8.65;;
19617;SDS011;9956;51.006;13.670;2023-05-07T23:32:05;9.10;;;8.20;;
19617;SDS011;9956;51.006;13.670;2023-05-07T23:37:06;9.38;;;8.40;;
19617;SDS011;9956;51.006;13.670;2023-05-07T23:42:07;7.65;;;6.95;;
19617;SDS011;9956;51.006;13.670;2023-05-07T23:47:09;9.68;;;8.68;;
19617;SDS011;9956;51.006;13.670;2023-05-07T23:52:09;9.30;;;8.40;;
19617;SDS011;9956;51.006;13.670;2023-05-07T23:57:10;8.90;;;8.00;;
